createdAt,value
2017-10-01T00:01:40.730Z,41.37
2017-10-01T00:04:07.527Z,44.77
2017-10-01T00:06:33.590Z,42.33
2017-10-01T00:08:59.664Z,33.97
2017-10-01T00:11:25.743Z,46.60
2017-10-01T00:13:51.815Z,39.03
2017-10-01T00:16:17.866Z,39.67
2017-10-01T00:18:44.655Z,44.03
2017-10-01T00:21:10.723Z,44.70
2017-10-01T00:23:36.780Z,44.97
2017-10-01T00:26:02.817Z,45.77
2017-10-01T00:28:28.853Z,42.30
2017-10-01T00:30:54.955Z,44.70
2017-10-01T00:33:21.019Z,40.40
2017-10-01T00:35:47.066Z,42.00
2017-10-01T00:38:13.881Z,50.13
2017-10-01T00:40:39.934Z,44.13
2017-10-01T00:43:06.735Z,48.00
2017-10-01T00:45:33.517Z,51.13
2017-10-01T00:48:00.337Z,50.90
2017-10-01T00:50:26.432Z,50.87
2017-10-01T00:52:52.474Z,47.63
2017-10-01T00:55:18.522Z,47.40
2017-10-01T00:57:45.314Z,43.53
2017-10-01T01:00:11.363Z,53.17
2017-10-01T01:02:37.402Z,46.07
2017-10-01T01:05:03.441Z,49.03
2017-10-01T01:07:29.510Z,49.57
2017-10-01T01:09:55.543Z,47.63
2017-10-01T01:12:21.599Z,48.13
2017-10-01T01:14:48.390Z,47.50
2017-10-01T01:17:14.478Z,42.40
2017-10-01T01:19:41.269Z,45.40
2017-10-01T01:22:08.053Z,51.90
2017-10-01T01:24:34.842Z,57.20
2017-10-01T01:27:01.624Z,47.53
2017-10-01T01:29:28.409Z,42.77
2017-10-01T01:31:54.458Z,43.77
2017-10-01T01:34:20.502Z,47.93
2017-10-01T01:36:47.277Z,46.33
2017-10-01T01:39:13.323Z,43.83
2017-10-01T01:41:39.358Z,50.50
2017-10-01T01:44:05.399Z,52.27
2017-10-01T01:46:31.434Z,48.67
2017-10-01T01:48:58.218Z,52.90
2017-10-01T01:51:24.284Z,49.70
2017-10-01T01:53:50.332Z,50.63
2017-10-01T01:56:17.159Z,52.97
2017-10-01T01:58:43.976Z,54.00
2017-10-01T02:01:10.054Z,62.93
2017-10-01T02:03:36.118Z,54.63
2017-10-01T02:06:02.164Z,49.70
2017-10-01T02:08:28.194Z,50.93
2017-10-01T02:10:54.976Z,58.43
2017-10-01T02:13:20.994Z,56.10
2017-10-01T02:15:47.040Z,49.77
2017-10-01T02:18:13.095Z,51.13
2017-10-01T02:20:39.138Z,48.80
2017-10-01T02:23:05.173Z,58.97
2017-10-01T02:25:31.230Z,58.87
2017-10-01T02:27:57.263Z,60.77
2017-10-01T02:30:23.302Z,65.07
2017-10-01T02:32:50.086Z,48.03
2017-10-01T02:35:16.138Z,54.80
2017-10-01T02:37:42.187Z,48.90
2017-10-01T02:40:08.219Z,54.67
2017-10-01T02:42:35.002Z,50.20
2017-10-01T02:45:01.058Z,50.63
2017-10-01T02:47:27.107Z,47.20
2017-10-01T02:49:53.910Z,48.27
2017-10-01T02:52:19.941Z,48.90
2017-10-01T02:54:47.467Z,49.73
2017-10-01T02:57:13.490Z,44.50
2017-10-01T02:59:39.538Z,46.03
2017-10-01T03:02:05.580Z,47.23
2017-10-01T03:04:31.699Z,42.70
2017-10-01T03:06:57.739Z,42.07
2017-10-01T03:09:24.522Z,41.20
2017-10-01T03:11:50.585Z,44.10
2017-10-01T03:14:16.619Z,47.57
2017-10-01T03:16:42.646Z,49.60
2017-10-01T03:19:09.414Z,47.70
2017-10-01T03:21:35.470Z,48.53
2017-10-01T03:24:01.528Z,50.03
2017-10-01T03:26:28.333Z,40.27
2017-10-01T03:28:54.370Z,49.50
2017-10-01T03:31:20.405Z,43.63
2017-10-01T03:33:46.450Z,37.90
2017-10-01T03:36:13.280Z,44.73
2017-10-01T03:38:40.039Z,35.30
2017-10-01T03:41:06.810Z,38.50
2017-10-01T03:43:32.877Z,33.30
2017-10-01T03:45:58.925Z,35.23
2017-10-01T03:48:24.977Z,36.33
2017-10-01T03:50:51.028Z,38.80
2017-10-01T03:53:17.081Z,39.43
2017-10-01T03:55:43.864Z,34.87
2017-10-01T03:58:09.907Z,34.83
2017-10-01T04:00:35.954Z,32.60
2017-10-01T04:03:02.027Z,32.20
2017-10-01T04:05:28.082Z,34.30
2017-10-01T04:07:54.123Z,45.63
2017-10-01T04:10:20.912Z,34.73
2017-10-01T04:12:46.941Z,44.30
2017-10-01T04:15:12.965Z,51.07
2017-10-01T04:17:38.998Z,33.00
2017-10-01T04:20:05.054Z,40.77
2017-10-01T04:22:31.819Z,37.03
2017-10-01T04:24:57.887Z,32.07
2017-10-01T04:27:23.912Z,28.40
2017-10-01T04:29:49.980Z,31.47
2017-10-01T04:32:16.038Z,30.67
2017-10-01T04:34:42.817Z,31.63
2017-10-01T04:37:08.862Z,29.33
2017-10-01T04:39:34.911Z,37.50
2017-10-01T04:42:00.941Z,51.23
2017-10-01T04:44:26.982Z,46.97
2017-10-01T04:46:53.013Z,35.13
2017-10-01T04:49:19.055Z,35.50
2017-10-01T04:51:45.831Z,31.10
2017-10-01T04:54:11.888Z,37.23
2017-10-01T04:56:37.937Z,29.37
2017-10-01T04:59:03.962Z,25.70
2017-10-01T05:01:30.757Z,38.10
2017-10-01T05:03:56.806Z,31.90
2017-10-01T05:06:22.829Z,26.67
2017-10-01T05:08:48.870Z,36.50
2017-10-01T05:11:15.639Z,36.97
2017-10-01T05:13:41.678Z,29.57
2017-10-01T05:16:07.703Z,35.27
2017-10-01T05:18:33.737Z,31.93
2017-10-01T05:20:59.782Z,35.57
2017-10-01T05:23:25.942Z,36.87
2017-10-01T05:25:52.711Z,30.57
2017-10-01T05:28:18.743Z,32.20
2017-10-01T05:30:44.766Z,35.60
2017-10-01T05:33:10.866Z,34.73
2017-10-01T05:35:36.914Z,37.93
2017-10-01T05:38:02.962Z,33.87
2017-10-01T05:40:29.016Z,33.30
2017-10-01T05:42:55.838Z,36.33
2017-10-01T05:45:21.899Z,31.23
2017-10-01T05:47:47.933Z,31.17
2017-10-01T05:50:13.982Z,32.17
2017-10-01T05:52:40.016Z,35.83
2017-10-01T05:55:06.058Z,36.60
2017-10-01T05:57:32.834Z,31.30
2017-10-01T05:59:58.885Z,30.57
2017-10-01T06:02:24.942Z,27.47
2017-10-01T06:17:51.101Z,25.97
2017-10-01T06:20:17.325Z,24.27
2017-10-01T06:22:43.381Z,19.13
2017-10-01T06:25:09.422Z,42.00
2017-10-01T06:27:36.225Z,21.70
2017-10-01T06:30:02.312Z,19.07
2017-10-01T06:32:28.359Z,19.97
2017-10-01T06:34:54.447Z,17.63
2017-10-01T06:37:20.491Z,19.33
2017-10-01T06:39:46.521Z,18.07
2017-10-01T06:42:12.586Z,18.73
2017-10-01T06:44:38.624Z,15.57
2017-10-01T06:47:05.400Z,15.80
2017-10-01T06:49:31.432Z,16.00
2017-10-01T06:51:57.470Z,15.60
2017-10-01T06:54:23.513Z,15.53
2017-10-01T06:56:49.538Z,17.50
2017-10-01T06:59:15.571Z,18.97
2017-10-01T07:01:42.370Z,15.47
2017-10-01T07:04:08.444Z,18.23
2017-10-01T07:06:41.223Z,14.93
2017-10-01T07:09:08.071Z,15.00
2017-10-01T07:11:34.144Z,16.43
2017-10-01T07:14:00.230Z,11.80
2017-10-01T07:16:26.260Z,14.10
2017-10-01T07:18:52.306Z,13.50
2017-10-01T07:21:18.355Z,11.27
2017-10-01T07:23:44.393Z,12.80
2017-10-01T07:26:11.173Z,12.47
2017-10-01T07:28:37.246Z,9.10
2017-10-01T07:31:03.270Z,10.63
2017-10-01T07:33:30.067Z,9.07
2017-10-01T07:35:56.130Z,8.27
2017-10-01T07:38:22.171Z,6.93
2017-10-01T07:40:48.961Z,9.13
2017-10-01T07:43:14.995Z,6.60
2017-10-01T07:45:41.057Z,10.77
2017-10-01T07:48:07.839Z,8.47
2017-10-01T07:50:33.930Z,7.33
2017-10-01T07:52:59.955Z,8.13
2017-10-01T07:55:26.123Z,8.80
2017-10-01T07:57:52.161Z,6.93
2017-10-01T08:00:18.466Z,4.77
2017-10-01T08:02:44.519Z,8.00
2017-10-01T08:05:10.662Z,7.20
2017-10-01T08:07:37.494Z,4.27
2017-10-01T08:10:04.467Z,7.53
2017-10-01T08:12:30.621Z,7.43
2017-10-01T08:14:56.686Z,5.43
2017-10-01T08:17:23.470Z,9.60
2017-10-01T08:19:49.654Z,8.53
2017-10-01T08:22:16.457Z,7.70
2017-10-01T08:24:42.555Z,6.17
2017-10-01T08:27:08.611Z,13.70
2017-10-01T08:29:34.676Z,8.20
2017-10-01T08:32:02.113Z,5.93
2017-10-01T08:34:28.298Z,10.80
2017-10-01T08:36:54.403Z,9.40
2017-10-01T08:39:20.458Z,6.53
2017-10-01T08:41:46.576Z,6.17
2017-10-01T08:44:12.763Z,6.87
2017-10-01T08:46:38.881Z,8.10
2017-10-01T08:49:05.070Z,5.93
2017-10-01T08:51:31.219Z,6.83
2017-10-01T08:53:58.106Z,5.87
2017-10-01T08:56:24.173Z,10.00
2017-10-01T08:58:50.284Z,7.10
2017-10-01T09:01:16.331Z,5.60
2017-10-01T09:03:43.194Z,6.43
2017-10-01T09:06:09.332Z,6.83
2017-10-01T09:08:35.471Z,8.20
2017-10-01T09:11:01.551Z,5.67
2017-10-01T09:13:28.422Z,4.10
2017-10-01T09:15:54.526Z,3.97
2017-10-01T09:18:20.650Z,4.33
2017-10-01T09:20:46.719Z,5.00
2017-10-01T09:23:12.802Z,6.17
2017-10-01T09:25:38.877Z,3.97
2017-10-01T09:28:04.933Z,5.70
2017-10-01T09:30:31.758Z,6.20
2017-10-01T09:32:57.791Z,6.10
2017-10-01T09:35:24.679Z,7.83
2017-10-01T09:37:50.715Z,7.93
2017-10-01T09:40:16.770Z,5.10
2017-10-01T09:42:42.815Z,7.37
2017-10-01T09:45:09.686Z,6.87
2017-10-01T09:47:35.783Z,11.70
2017-10-01T09:50:01.840Z,4.70
2017-10-01T09:52:27.918Z,4.43
2017-10-01T09:54:54.735Z,5.60
2017-10-01T09:57:20.788Z,3.00
2017-10-01T09:59:47.635Z,6.50
2017-10-01T10:02:13.698Z,4.73
2017-10-01T10:04:39.811Z,7.93
2017-10-01T10:07:05.857Z,7.00
2017-10-01T10:09:31.906Z,4.43
2017-10-01T10:11:57.931Z,5.47
2017-10-01T10:14:24.047Z,3.90
2017-10-01T10:16:50.105Z,7.60
2017-10-01T10:19:16.129Z,10.87
2017-10-01T10:21:42.602Z,6.50
2017-10-01T10:24:09.043Z,2.93
2017-10-01T10:26:35.078Z,3.27
2017-10-01T10:29:01.124Z,10.17
2017-10-01T10:31:27.930Z,3.30
2017-10-01T10:33:53.992Z,5.10
2017-10-01T10:36:20.051Z,7.57
2017-10-01T10:38:46.112Z,7.57
2017-10-01T10:41:12.214Z,2.77
2017-10-01T10:43:38.263Z,5.57
2017-10-01T10:46:05.043Z,4.03
2017-10-01T10:48:31.074Z,5.50
2017-10-01T10:50:57.148Z,4.83
2017-10-01T10:53:23.938Z,7.20
2017-10-01T10:55:49.966Z,4.73
2017-10-01T10:58:15.999Z,4.27
2017-10-01T11:00:42.056Z,11.53
2017-10-01T11:03:08.825Z,4.43
2017-10-01T11:05:34.861Z,7.60
2017-10-01T11:08:00.906Z,4.73
2017-10-01T11:10:26.964Z,7.53
2017-10-01T11:12:53.737Z,5.57
2017-10-01T11:15:19.798Z,6.30
2017-10-01T11:17:45.832Z,5.10
2017-10-01T11:20:11.887Z,4.40
2017-10-01T11:22:37.910Z,3.47
2017-10-01T11:25:04.689Z,3.70
2017-10-01T11:27:30.718Z,6.03
2017-10-01T11:29:56.746Z,5.57
2017-10-01T11:32:22.772Z,5.00
2017-10-01T11:34:48.826Z,4.57
2017-10-01T11:37:15.613Z,7.03
2017-10-01T11:39:41.683Z,6.30
2017-10-01T11:42:07.722Z,6.60
2017-10-01T11:44:34.546Z,3.80
2017-10-01T11:47:01.347Z,4.10
2017-10-01T11:49:27.404Z,2.97
2017-10-01T11:51:53.475Z,4.13
2017-10-01T11:54:19.525Z,5.53
2017-10-01T11:56:45.546Z,3.70
2017-10-01T11:59:11.602Z,3.00
2017-10-01T12:01:37.661Z,4.43
2017-10-01T12:04:03.723Z,3.83
2017-10-01T12:06:29.774Z,2.47
2017-10-01T12:08:56.627Z,4.73
2017-10-01T12:11:22.695Z,2.77
2017-10-01T12:13:48.748Z,4.57
2017-10-01T12:16:14.786Z,4.70
2017-10-01T12:18:41.586Z,2.33
2017-10-01T12:21:07.641Z,2.83
2017-10-01T12:23:33.728Z,3.63
2017-10-01T12:25:59.779Z,3.73
2017-10-01T12:28:25.937Z,2.73
2017-10-01T12:30:52.029Z,5.50
2017-10-01T12:33:18.065Z,8.80
2017-10-01T12:35:45.247Z,3.80
2017-10-01T12:38:11.325Z,3.00
2017-10-01T12:40:38.126Z,5.93
2017-10-01T12:43:04.254Z,2.70
2017-10-01T12:45:30.318Z,3.80
2017-10-01T12:47:57.089Z,3.20
2017-10-01T12:50:23.146Z,4.30
2017-10-01T12:52:50.669Z,3.63
2017-10-01T12:55:16.742Z,5.83
2017-10-01T12:57:42.806Z,6.90
2017-10-01T13:00:08.838Z,4.17
2017-10-01T13:02:34.864Z,4.00
2017-10-01T13:05:02.037Z,6.80
2017-10-01T13:07:28.157Z,3.67
2017-10-01T13:09:54.206Z,6.50
2017-10-01T13:12:20.272Z,2.10
2017-10-01T13:14:46.315Z,5.17
2017-10-01T13:17:13.206Z,3.00
2017-10-01T13:19:39.254Z,4.03
2017-10-01T13:22:06.041Z,1.67
2017-10-01T13:24:32.061Z,2.93
2017-10-01T13:26:58.134Z,1.60
2017-10-01T13:29:24.925Z,3.00
2017-10-01T13:31:50.969Z,3.50
2017-10-01T13:34:17.001Z,3.60
2017-10-01T13:36:43.047Z,3.47
2017-10-01T13:39:09.817Z,3.53
2017-10-01T13:41:35.860Z,1.93
2017-10-01T13:44:01.909Z,2.70
2017-10-01T13:46:28.754Z,2.43
2017-10-01T13:48:55.533Z,2.10
2017-10-01T13:51:21.571Z,2.53
2017-10-01T13:53:48.351Z,2.87
2017-10-01T13:56:14.374Z,3.10
2017-10-01T13:58:40.411Z,5.00
2017-10-01T14:01:07.446Z,5.07
2017-10-01T14:03:33.665Z,3.70
2017-10-01T14:05:59.967Z,2.97
2017-10-01T14:08:26.205Z,4.27
2017-10-01T14:10:52.432Z,3.63
2017-10-01T14:13:18.678Z,3.10
2017-10-01T14:15:44.915Z,3.40
2017-10-01T14:18:11.235Z,3.77
2017-10-01T14:20:37.475Z,6.73
2017-10-01T14:23:03.700Z,2.93
2017-10-01T14:25:29.913Z,4.30
2017-10-01T14:27:56.254Z,3.00
2017-10-01T14:30:23.303Z,4.67
2017-10-01T14:32:49.618Z,4.23
2017-10-01T14:35:15.855Z,6.33
2017-10-01T14:37:42.081Z,4.37
2017-10-01T14:40:08.310Z,4.53
2017-10-01T14:42:34.534Z,7.43
2017-10-01T14:45:01.502Z,6.97
2017-10-01T14:47:28.479Z,4.07
2017-10-01T14:49:54.686Z,1.47
2017-10-01T14:52:20.913Z,3.30
2017-10-01T14:54:47.866Z,4.40
2017-10-01T14:57:14.824Z,4.17
2017-10-01T14:59:41.082Z,4.43
2017-10-01T15:02:07.304Z,5.03
2017-10-01T15:04:33.536Z,3.77
2017-10-01T15:06:59.757Z,6.80
2017-10-01T15:09:26.011Z,3.80
2017-10-01T15:11:52.279Z,7.87
2017-10-01T15:14:18.595Z,3.67
2017-10-01T15:16:45.604Z,2.40
2017-10-01T15:19:11.939Z,6.23
2017-10-01T15:21:38.309Z,4.33
2017-10-01T15:24:04.627Z,6.77
2017-10-01T15:26:30.926Z,3.60
2017-10-01T15:28:57.274Z,5.20
2017-10-01T15:31:24.326Z,3.43
2017-10-01T15:33:51.290Z,6.13
2017-10-01T15:36:17.561Z,4.80
2017-10-01T15:38:43.812Z,4.00
2017-10-01T15:41:10.831Z,6.30
2017-10-01T15:43:37.074Z,3.53
2017-10-01T15:46:03.443Z,4.60
2017-10-01T15:48:29.705Z,1.70
2017-10-01T15:50:55.952Z,7.40
2017-10-01T15:53:22.307Z,5.00
2017-10-01T15:55:49.279Z,5.00
2017-10-01T15:58:15.548Z,4.80
2017-10-01T16:00:41.780Z,3.80
2017-10-01T16:03:08.019Z,5.27
2017-10-01T16:05:34.243Z,5.30
2017-10-01T16:08:00.487Z,9.23
2017-10-01T16:10:27.520Z,8.33
2017-10-01T16:12:54.527Z,2.20
2017-10-01T16:15:20.759Z,4.23
2017-10-01T16:17:47.002Z,3.87
2017-10-01T16:20:13.245Z,4.47
2017-10-01T16:22:40.223Z,4.97
2017-10-01T16:25:06.550Z,5.87
2017-10-01T16:27:32.850Z,6.33
2017-10-01T16:29:59.850Z,7.90
2017-10-01T16:32:26.066Z,7.30
2017-10-01T16:34:52.290Z,5.90
2017-10-01T16:37:18.569Z,9.07
2017-10-01T16:39:45.558Z,9.47
2017-10-01T16:42:11.794Z,5.10
2017-10-01T16:44:38.086Z,3.23
2017-10-01T16:47:05.058Z,3.10
2017-10-01T16:49:31.282Z,4.63
2017-10-01T16:51:57.510Z,4.13
2017-10-01T16:54:23.791Z,5.70
2017-10-01T16:56:50.038Z,10.60
2017-10-01T16:59:16.463Z,5.00
2017-10-01T17:01:43.539Z,6.70
2017-10-01T17:04:09.826Z,10.40
2017-10-01T17:06:36.157Z,6.63
2017-10-01T17:09:02.379Z,8.50
2017-10-01T17:11:29.427Z,8.77
2017-10-01T17:13:55.736Z,7.00
2017-10-01T17:16:21.970Z,4.90
2017-10-01T17:18:48.194Z,5.20
2017-10-01T17:21:14.422Z,7.30
2017-10-01T17:23:40.682Z,4.47
2017-10-01T17:26:07.674Z,8.80
2017-10-01T17:28:33.942Z,6.33
2017-10-01T17:31:01.137Z,4.07
2017-10-01T17:33:27.438Z,3.47
2017-10-01T17:35:54.481Z,7.07
2017-10-01T17:38:21.456Z,5.20
2017-10-01T17:40:47.503Z,6.00
2017-10-01T17:43:13.742Z,4.40
2017-10-01T17:45:39.991Z,4.77
2017-10-01T17:48:07.073Z,3.60
2017-10-01T17:50:34.393Z,4.70
2017-10-01T17:53:01.778Z,4.23
2017-10-01T17:55:28.075Z,5.77
2017-10-01T17:57:55.106Z,6.73
2017-10-01T18:00:21.999Z,5.60
2017-10-01T18:02:48.876Z,4.00
2017-10-01T18:05:15.303Z,5.90
2017-10-01T18:07:42.187Z,4.53
2017-10-01T18:10:08.713Z,10.47
2017-10-01T18:12:35.210Z,7.00
2017-10-01T18:15:02.489Z,6.43
2017-10-01T18:17:28.934Z,8.50
2017-10-01T18:19:55.004Z,8.50
2017-10-01T18:22:21.058Z,5.60
2017-10-01T18:24:47.942Z,5.40
2017-10-01T18:33:15.149Z,4.80
2017-10-01T18:35:41.419Z,4.47
2017-10-01T18:38:07.718Z,5.83
2017-10-01T18:40:34.090Z,5.57
2017-10-01T18:43:00.374Z,4.83
2017-10-01T18:45:26.723Z,4.87
2017-10-01T18:47:53.397Z,5.80
2017-10-01T18:50:20.582Z,3.90
2017-10-01T18:52:46.987Z,10.57
2017-10-01T18:55:13.315Z,5.13
2017-10-01T18:57:39.699Z,9.70
2017-10-01T19:00:06.897Z,3.57
2017-10-01T19:02:33.187Z,7.23
2017-10-01T19:04:59.621Z,5.50
2017-10-01T19:07:26.962Z,3.03
2017-10-01T19:09:53.246Z,4.97
2017-10-01T19:12:19.562Z,4.97
2017-10-01T19:14:46.605Z,7.10
2017-10-01T19:17:13.655Z,6.73
2017-10-01T19:19:39.922Z,7.00
2017-10-01T19:22:06.277Z,9.90
2017-10-01T19:24:33.344Z,4.13
2017-10-01T19:26:59.634Z,5.77
2017-10-01T19:29:25.933Z,6.07
2017-10-01T19:31:52.182Z,11.63
2017-10-01T19:34:18.438Z,8.20
2017-10-01T19:36:44.779Z,6.13
2017-10-01T19:39:11.154Z,7.40
2017-10-01T19:41:37.406Z,9.43
2017-10-01T19:44:03.680Z,6.93
2017-10-01T19:46:30.035Z,5.30
2017-10-01T19:48:56.387Z,7.33
2017-10-01T19:51:22.767Z,5.23
2017-10-01T19:53:49.134Z,3.33
2017-10-01T19:56:16.186Z,6.00
2017-10-01T19:58:43.273Z,7.83
2017-10-01T20:01:09.527Z,4.53
2017-10-01T20:03:36.583Z,9.90
2017-10-01T20:06:03.010Z,7.63
2017-10-01T20:08:30.166Z,4.23
2017-10-01T20:10:56.487Z,7.80
2017-10-01T20:13:23.561Z,7.23
2017-10-01T20:15:50.683Z,9.13
2017-10-01T20:18:18.175Z,4.37
2017-10-01T20:20:45.215Z,5.77
2017-10-01T20:23:11.585Z,5.27
2017-10-01T20:25:38.367Z,5.70
2017-10-01T20:28:04.692Z,5.43
2017-10-01T20:30:31.000Z,6.73
2017-10-01T20:32:57.406Z,5.60
2017-10-01T20:35:23.682Z,6.50
2017-10-01T20:37:49.931Z,5.83
2017-10-01T20:40:16.049Z,6.87
2017-10-01T20:42:42.231Z,7.90
2017-10-01T20:45:08.406Z,7.23
2017-10-01T20:47:35.223Z,5.80
2017-10-01T20:50:01.369Z,4.63
2017-10-01T20:52:27.729Z,5.20
2017-10-01T20:54:53.870Z,3.53
2017-10-01T20:57:21.577Z,6.77
2017-10-01T20:59:47.675Z,5.80
2017-10-01T21:02:14.622Z,6.60
2017-10-01T21:04:41.540Z,3.90
2017-10-01T21:07:08.041Z,7.70
2017-10-01T21:09:34.973Z,8.03
2017-10-01T21:12:01.170Z,3.17
2017-10-01T21:14:27.629Z,5.20
2017-10-01T21:16:53.711Z,5.90
2017-10-01T21:19:19.838Z,12.43
2017-10-01T21:21:46.775Z,7.93
2017-10-01T21:24:12.980Z,5.77
2017-10-01T21:26:39.106Z,5.17
2017-10-01T21:29:05.234Z,3.47
2017-10-01T21:31:31.316Z,5.77
2017-10-01T21:33:58.171Z,6.60
2017-10-01T21:36:24.385Z,4.37
2017-10-01T21:38:50.521Z,7.53
2017-10-01T21:41:16.613Z,4.37
2017-10-01T21:43:42.669Z,4.57
2017-10-01T21:46:08.723Z,8.07
2017-10-01T21:48:34.823Z,5.53
2017-10-01T21:51:00.906Z,10.13
2017-10-01T21:53:27.293Z,4.33
2017-10-01T21:55:53.342Z,3.63
2017-10-01T21:58:20.246Z,7.27
2017-10-01T22:00:47.177Z,6.27
2017-10-01T22:03:13.278Z,5.97
2017-10-01T22:05:39.370Z,8.20
2017-10-01T22:08:06.239Z,7.80
2017-10-01T22:10:32.318Z,5.07
2017-10-01T22:12:58.370Z,4.97
2017-10-01T22:15:24.425Z,9.03
2017-10-01T22:17:50.483Z,3.30
2017-10-01T22:20:16.604Z,4.17
2017-10-01T22:22:42.679Z,3.77
2017-10-01T22:25:08.814Z,5.03
2017-10-01T22:27:34.976Z,6.83
2017-10-01T22:30:01.075Z,4.90
2017-10-01T22:32:27.427Z,3.83
2017-10-01T22:34:54.238Z,6.17
2017-10-01T22:37:20.450Z,5.53
2017-10-01T22:39:46.548Z,5.73
2017-10-01T22:42:12.786Z,6.53
2017-10-01T22:44:38.866Z,4.20
2017-10-01T22:47:04.930Z,7.63
2017-10-01T22:49:31.022Z,10.80
2017-10-01T22:51:57.106Z,8.27
2017-10-01T22:54:23.217Z,5.70
2017-10-01T22:56:50.020Z,7.53
2017-10-01T22:59:16.125Z,7.40
2017-10-01T23:01:42.217Z,6.10
2017-10-01T23:04:08.455Z,3.63
2017-10-01T23:06:34.537Z,4.50
2017-10-01T23:09:00.674Z,5.23
2017-10-01T23:11:26.781Z,6.57
2017-10-01T23:13:53.574Z,7.07
2017-10-01T23:16:19.671Z,4.97
2017-10-01T23:18:45.887Z,4.73
2017-10-01T23:21:11.959Z,4.83
2017-10-01T23:23:38.048Z,13.00
2017-10-01T23:26:04.120Z,5.27
2017-10-01T23:28:30.212Z,5.90
2017-10-01T23:30:56.275Z,5.33
2017-10-01T23:33:22.327Z,2.97
2017-10-01T23:35:49.178Z,4.07
2017-10-01T23:38:15.329Z,4.37
2017-10-01T23:40:41.400Z,7.07
2017-10-01T23:43:08.228Z,5.23
2017-10-01T23:45:34.300Z,5.03
2017-10-01T23:48:00.362Z,3.70
2017-10-01T23:50:26.419Z,5.47
2017-10-01T23:52:53.227Z,7.80
2017-10-01T23:55:19.286Z,3.37
2017-10-01T23:57:45.486Z,4.00
